Patrick AFB, Florida
Current Conditions -  °F | °C
As of 4:58 AM on Tuesday 27 Jan 2015 (Local Time) from KCOF Reporting Station
Clear Clear  
Wind Chill: 41°   Ceiling: Unl
Heat Index: 47°   Visibility: 10mi
Dew Point: 38°   Wind: 18mph
Humidity: 69%   Direction: 310°NW
Pressure: 29.97"   Gusts: NA
Location:  28.22°N, 80.61°W
Report Text: KCOF 270958Z AUTO 31016KT 10SM CLR 09/03 A2997 RMK AO2 SLP153 T00860031 CHINO RWY02 $
Loading
Personal Weather Stations






























Interactive Weather Map New forecast layout! Learn more

10-Day Weather Forecast

Advertisements
Track Severe Weather on mobile